• Join FlightAware (Why Join?)
  • Login
  • US Flag 
10:07AM EST


 

Airport Tracker/Info


-or-


 

Live Flight TrackerFlight Track Log ✈ UAL4380 ✈ 29-Apr-2013 ✈ KMOB - KIAH

Flight Track Log - Related Links

Times and Time Zones

All times are in EDT time to prevent confusion due to time zone crossing. See the UAL4380 flight status page for this flight to view local times or setup timezone preferences in your user account.

Time Position Orientation Groundspeed Altitude Reporting Facility
EDT Latitude Longitude Course Direction KTS MPH feet Rate Location/Type
07:00AM 30.7128 -88.2639 250° West 153 176 1,200  Level Houston Center
07:01AM 30.7478 -88.3075 313° West 192 221 3,600 1,980 Climbing Houston Center
07:02AM 30.7297 -88.3819 254° West 240 276 5,300 1,800 Climbing Houston Center
07:03AM 30.7064 -88.4611 251° West 254 292 7,300 2,220 Climbing Houston Center
07:04AM 30.6822 -88.5444 251° West 267 307 9,800 2,160 Climbing Houston Center
07:05AM 30.5528 -88.8566 252° West  Level FlightAware Approximate
07:05AM 30.6572 -88.6264 250° West 269 310 11,700  Level Houston Center
07:06AM 30.5115 -88.9544 250° West  Level FlightAware Approximate
07:06AM 30.6314 -88.7131 251° West 281 323 13,400  Level Houston Center
07:07AM 30.6047 -88.8033 251° West 295 339 15,100 1,680 Climbing Houston Center
07:08AM 30.5906 -88.8969 260° West 297 342 16,900 1,800 Climbing Houston Center
07:09AM 30.5719 -89.0056 259° West 299 344 18,800 1,740 Climbing Houston Center
07:10AM 30.5586 -89.0992 261° West 296 341 20,500 1,680 Climbing Houston Center
07:11AM 30.5486 -89.1933 263° West 296 341 22,200 1,680 Climbing Houston Center
07:12AM 30.5364 -89.2861 261° West 293 337 23,900 1,680 Climbing Houston Center
07:13AM 30.5217 -89.3786 260° West 292 336 25,600 1,380 Climbing Houston Center
07:14AM 30.4917 -89.4642 248° West 287 330 26,800 1,140 Climbing Houston Center
07:15AM 30.4625 -89.5525 249° West 291 335 28,000 1,140 Climbing Houston Center
07:17AM 30.4342 -89.6406 250° West 293 337 29,200 1,200 Climbing Houston Center
07:18AM 30.4047 -89.7267 248° West 292 336 30,500 1,260 Climbing Houston Center
07:19AM 30.3692 -89.8225 247° West 299 344 31,800 720 Climbing Houston Center
07:20AM 30.3400 -89.9206 251° West 310 357 32,000 60 Climbing Houston Center
07:21AM 30.3053 -90.0228 249° West 339 390 32,000  Level Houston Center
07:22AM 30.2681 -90.1328 249° West 368 423 32,000  Level Houston Center
07:23AM 30.2289 -90.2489 249° West 388 447 32,000  Level Houston Center
07:24AM 30.1889 -90.3675 249° West 395 455 32,000  Level Houston Center
07:25AM 30.1486 -90.4814 248° West 386 444 32,000  Level Houston Center
07:26AM 30.1108 -90.5967 249° West 386 444 32,000 -60 Level Houston Center
07:27AM 30.0697 -90.7133 248° West 392 451 31,900  Descending Houston Center
07:28AM 30.0303 -90.8292 249° West 390 449 32,000  Climbing Houston Center
07:29AM 29.9889 -90.9458 248° West 393 452 32,000  Level Houston Center
07:30AM 29.9486 -91.0642 249° West 396 456 32,000  Level Houston Center
07:31AM 29.9075 -91.1828 248° West 398 458 32,000  Level Houston Center
07:32AM 29.8581 -91.3250 248° West 400 460 32,000  Level Houston Center
07:33AM 29.8156 -91.4442 248° West 405 466 32,000  Level Houston Center
07:34AM 29.7753 -91.5636 249° West 402 463 32,000  Level Houston Center
07:35AM 29.7322 -91.6839 248° West 405 466 32,000  Level Houston Center
07:36AM 29.6906 -91.8017 248° West 406 467 32,000  Level Houston Center
07:37AM 29.6486 -91.9211 248° West 405 466 32,000  Level Houston Center
07:38AM 29.6061 -92.0408 248° West 403 464 32,000  Level Houston Center
07:39AM 29.5639 -92.1606 248° West 404 465 32,000 -60 Level Houston Center
07:40AM 29.5206 -92.2800 247° West 404 465 31,900  Descending Houston Center
07:41AM 29.4772 -92.3989 247° West 404 465 32,000  Climbing Houston Center
07:42AM 29.4600 -92.5247 261° West 405 466 31,900  Descending Houston Center
07:43AM 29.4639 -92.6533 272° West 403 464 32,000  Climbing Houston Center
07:44AM 29.4728 -92.8069 274° West 403 464 32,000 -480 Level Houston Center
07:45AM 29.4783 -92.9378 273° West 409 471 31,100 -1,140 Descending Houston Center
07:46AM 29.4839 -93.0667 273° West 405 466 29,700 -1,380 Descending Houston Center
07:47AM 29.4894 -93.1986 273° West 411 473 28,300 -1,440 Descending Houston Center
07:48AM 29.4950 -93.3328 273° West 419 482 26,800 -1,440 Descending Houston Center
07:49AM 29.5008 -93.4678 273° West 422 486 25,400 -1,500 Descending Houston Center
07:50AM 29.5064 -93.6019 273° West 420 483 23,800 -1,800 Descending Houston Center
07:51AM 29.5108 -93.7292 272° West 403 464 21,800 -2,040 Descending Houston Center
07:52AM 29.5153 -93.8533 272° West 392 451 19,700 -2,160 Descending Houston Center
07:53AM 29.5203 -93.9733 273° West 380 437 17,400 -2,400 Descending Houston Center
07:54AM 29.5225 -94.0389 272° West 364 419 16,300 -1,980 Descending Houston Center
07:54AM 29.5244 -94.0889 273° West 366 421 15,400 -1,920 Descending Houston Center
07:55AM 29.5281 -94.2042 272° West 354 407 13,300 -1,140 Descending Houston Center
07:56AM 29.5581 -94.3300 285° West 323 372 13,000 -180 Descending Houston Center
07:57AM 29.5981 -94.3886 308° West 332 382 13,000 -180 Level Houston Center
07:57AM 29.6272 -94.4342 306° West 336 387 12,800 -1,980 Descending Houston Center
07:58AM 29.6647 -94.4906 307° West 333 383 11,000 -2,400 Descending Houston Center
07:58AM 29.6817 -94.5183 305° West 328 377 10,400 -1,020 Descending Houston Center
07:59AM 29.7178 -94.5728 307° West 324 373 10,000 -420 Descending Houston Center
08:00AM 29.7336 -94.5983 306° West 308 354 10,000  Level Houston Center
08:00AM 29.7706 -94.6539 307° West 243 280 10,000 -120 Level Houston Center
08:01AM 29.8053 -94.7061 307° West 255 293 9,800 -660 Descending Houston Center
08:02AM 29.8481 -94.7703 308° West 254 292 8,800 -1,020 Descending Houston Center
08:03AM 29.8886 -94.8342 306° West 251 289 7,800 -1,020 Descending Houston Center
08:04AM 29.9317 -94.9011 307° West 259 298 6,800 -1,020 Descending Houston Center
08:05AM 29.9736 -94.9669 306° West 256 295 5,800 -1,080 Descending Houston Center
08:06AM 29.9931 -95.0478 286° West 240 276 4,700 -1,200 Descending Houston Center
08:07AM 29.9939 -95.1225 271° West 213 245 3,500 -1,140 Descending Houston Center
08:08AM 29.9931 -95.1831 269° West 184 212 2,500 -960 Descending Houston Center
08:09AM 29.9942 -95.2408 271° West 173 199 1,600 -840 Descending Houston Center
08:10AM 29.9922 -95.2867 267° West 147 169 800 -840 Descending Houston Center